ナント の空港の天気 - METARとTAF

ナント空港 ( LFRS / NTE ) - フランス ナント
飛行場実況気象(Metar)
観測時間02/05 21:00 CET (02/05 20:00 UTC)
風向・風速北北東 4m/s
視程10km以上
天気現象
なし
気温8℃
湿度71%
気圧1041hPa
METARLFRS 052000Z AUTO 03007KT 360V070 CAVOK 08/03 Q1041 NOSIG
過去の天気等 Google飛行場航空写真 Wunderground天気予報

過去48時間のMETAR

飛行場予報(TAF)
発表時間: 2/05 18:00 CET (2/05 17:00 UTC)
予報対象時間: 5日19時 CET ~ 7日1時 CET
風向・風速北北東 5m/s
視程10km以上
なし
6日7時 CET から 確率 40% で
全天の8割程度の雲 雲底高度 210m
TAF LFRS 051700Z 0518/0624 03010KT CAVOK
PROB40 0606/0612 BKN007